Time;durP1;ratioP1;P1;durP2;ratioP2;P2;SDS_P1;SDS_P2;PMS_P1;PMS_P2;Temp;Humidity;BMP_temperature;BMP_pressure;BME280_temperature;BME280_humidity;BME280_pressure;Samples;Min_cycle;Max_cycle;Signal;HPM_P1;HPM_P2
2022/09/10 00:00:11;;;;;;;4.35;2.70;;;;;;;27.37;41.08;101870.44;4214561;28;20161;-63
2022/09/10 00:02:13;;;;;;;4.38;3.00;;;;;;;27.36;40.90;101861.19;4197159;28;20110;-63
2022/09/10 00:04:15;;;;;;;8.38;4.05;;;;;;;27.36;40.92;101863.16;4204781;28;20028;-63
2022/09/10 00:06:18;;;;;;;5.10;3.15;;;;;;;27.39;41.24;101861.69;4210794;28;20072;-64
2022/09/10 00:08:22;;;;;;;6.18;2.97;;;;;;;27.38;40.83;101854.41;4215925;28;20376;-63
2022/09/10 00:10:25;;;;;;;5.05;2.70;;;;;;;27.25;41.26;101844.75;4217198;28;20433;-62
2022/09/10 00:12:26;;;;;;;7.60;3.58;;;;;;;27.37;41.30;101867.63;4210233;28;20166;-63
2022/09/10 00:14:27;;;;;;;5.65;3.30;;;;;;;27.39;41.07;101878.56;4203392;28;20040;-62
2022/09/10 00:16:30;;;;;;;5.57;3.28;;;;;;;27.36;41.24;101883.66;4212132;28;20097;-62
2022/09/10 00:18:33;;;;;;;4.82;2.70;;;;;;;27.31;41.19;101868.84;4207761;28;20057;-62
2022/09/10 00:20:42;;;;;;;3.88;2.90;;;;;;;27.35;41.12;101882.00;4200575;28;20048;-62
2022/09/10 00:22:44;;;;;;;3.75;2.70;;;;;;;27.28;41.37;101873.09;4198749;28;20377;-62
2022/09/10 00:24:47;;;;;;;4.10;2.78;;;;;;;27.36;41.23;101892.09;4212539;28;20040;-62
2022/09/10 00:26:49;;;;;;;3.90;3.00;;;;;;;27.27;41.21;101870.59;4211720;28;20044;-62
2022/09/10 00:28:53;;;;;;;6.57;3.10;;;;;;;27.33;41.51;101881.44;4216461;28;20736;-62
2022/09/10 00:30:54;;;;;;;3.83;2.90;;;;;;;27.40;41.32;101894.28;4208740;28;20036;-62
2022/09/10 00:32:59;;;;;;;13.82;3.22;;;;;;;27.42;41.30;101900.47;4197624;28;20048;-62
2022/09/10 00:35:00;;;;;;;5.30;3.08;;;;;;;27.45;41.34;101902.66;4199453;28;20432;-62
2022/09/10 00:37:04;;;;;;;20.60;3.13;;;;;;;27.48;41.29;101899.22;4196422;28;20098;-62
2022/09/10 00:39:17;;;;;;;4.60;2.72;;;;;;;27.46;41.49;101912.75;4203964;28;20058;-62
2022/09/10 00:41:21;;;;;;;5.82;2.85;;;;;;;27.51;41.54;101909.88;4199473;28;20139;-62
2022/09/10 00:43:22;;;;;;;4.60;2.58;;;;;;;27.52;41.49;101922.78;4199352;28;20040;-62
2022/09/10 00:45:27;;;;;;;3.13;2.65;;;;;;;27.36;41.36;101900.53;4199653;28;20040;-62
2022/09/10 00:47:33;;;;;;;11.07;2.97;;;;;;;27.39;41.79;101909.47;4183527;28;20480;-63
2022/09/10 00:49:39;;;;;;;67.07;5.10;;;;;;;27.34;41.80;101904.75;4196605;28;20499;-63
2022/09/10 00:51:41;;;;;;;23.00;3.42;;;;;;;27.37;41.64;101909.78;4188785;28;20037;-64
2022/09/10 00:53:42;;;;;;;10.25;3.30;;;;;;;27.50;41.53;101939.13;4210691;28;20451;-64
2022/09/10 00:55:49;;;;;;;9.38;3.10;;;;;;;27.51;41.40;101943.63;4216335;28;20090;-64
2022/09/10 00:57:55;;;;;;;7.60;3.33;;;;;;;27.47;41.28;101948.16;4211802;28;20074;-64
2022/09/10 01:00:06;;;;;;;5.57;3.17;;;;;;;27.47;41.65;101957.44;4201647;28;20039;-64
2022/09/10 01:02:08;;;;;;;7.22;3.15;;;;;;;27.48;41.38;101961.06;4197781;28;20040;-64
2022/09/10 01:04:10;;;;;;;32.80;4.32;;;;;;;27.46;41.36;101963.38;4199191;28;20041;-63
2022/09/10 01:06:12;;;;;;;12.65;3.70;;;;;;;27.35;41.41;101951.41;4200775;28;20075;-69
2022/09/10 01:08:14;;;;;;;7.50;3.15;;;;;;;27.48;41.29;101969.50;4199425;28;20048;-68
2022/09/10 01:10:23;;;;;;;5.25;2.83;;;;;;;27.45;41.32;101964.50;4198929;28;20102;-68
2022/09/10 01:12:44;;;;;;;5.28;2.75;;;;;;;27.45;41.20;101967.31;4198539;28;20105;-67
2022/09/10 01:14:54;;;;;;;7.30;3.00;;;;;;;27.47;41.06;101976.28;4199339;28;20094;-68
2022/09/10 01:17:21;;;;;;;11.82;3.03;;;;;;;27.47;41.25;101971.50;4199882;28;20066;-68
2022/09/10 01:19:51;;;;;;;5.78;3.47;;;;;;;27.47;41.16;101970.66;4199861;28;20472;-69
2022/09/10 01:21:59;;;;;;;8.40;2.90;;;;;;;27.46;41.07;101969.00;4208413;28;20043;-68
2022/09/10 01:24:12;;;;;;;6.40;2.72;;;;;;;27.44;41.18;101974.06;4182913;28;20029;-68
2022/09/10 01:26:32;;;;;;;4.75;3.17;;;;;;;27.43;41.01;101984.47;4188099;28;20082;-68
2022/09/10 01:29:00;;;;;;;7.50;3.13;;;;;;;27.46;41.01;101983.03;4199241;28;20045;-67
2022/09/10 01:31:11;;;;;;;5.32;2.92;;;;;;;27.43;41.04;101987.28;4170724;28;20500;-68
2022/09/10 01:33:26;;;;;;;8.25;3.00;;;;;;;27.42;41.13;101984.78;4199472;28;20040;-68
2022/09/10 01:35:40;;;;;;;8.00;3.10;;;;;;;27.44;41.09;101993.72;4199113;28;20032;-69
2022/09/10 01:37:53;;;;;;;7.45;3.08;;;;;;;27.36;41.02;101967.16;4199448;28;20629;-69
2022/09/10 01:39:58;;;;;;;6.47;3.10;;;;;;;27.48;41.05;101992.00;4199183;28;20089;-67
2022/09/10 01:42:00;;;;;;;6.93;3.65;;;;;;;27.41;41.00;101983.94;4198973;28;20067;-67
2022/09/10 01:44:09;;;;;;;9.73;3.60;;;;;;;27.44;41.09;101999.34;4199085;28;20036;-67
2022/09/10 01:46:26;;;;;;;6.15;3.72;;;;;;;27.44;41.20;101999.34;4199116;28;20044;-67
2022/09/10 01:48:53;;;;;;;6.55;3.15;;;;;;;27.43;41.08;102001.34;4194097;28;20037;-67
2022/09/10 01:51:07;;;;;;;4.10;2.95;;;;;;;27.44;41.11;102010.59;4198543;28;20052;-67
2022/09/10 01:53:21;;;;;;;4.95;3.38;;;;;;;27.43;41.00;102006.97;4199109;28;20063;-67
2022/09/10 01:55:40;;;;;;;6.72;3.33;;;;;;;27.42;41.19;102019.34;4198889;28;20102;-67
2022/09/10 01:57:58;;;;;;;5.03;3.10;;;;;;;27.44;41.47;102016.22;4197482;28;20049;-67
2022/09/10 02:00:15;;;;;;;5.10;2.80;;;;;;;27.41;41.41;102012.06;4199382;28;20048;-67
2022/09/10 02:02:47;;;;;;;4.35;3.63;;;;;;;27.41;41.35;102016.84;4198619;28;20037;-67
2022/09/10 02:04:51;;;;;;;7.07;3.30;;;;;;;27.44;41.32;102021.84;4198752;28;20480;-67
2022/09/10 02:06:55;;;;;;;6.18;3.10;;;;;;;27.44;41.43;102021.84;4193364;28;20428;-67
2022/09/10 02:08:59;;;;;;;5.63;3.22;;;;;;;27.44;41.64;102019.03;4191518;28;20044;-68
2022/09/10 02:11:05;;;;;;;6.30;3.00;;;;;;;27.44;41.49;102019.03;4181914;28;20053;-67
2022/09/10 02:13:09;;;;;;;4.70;2.78;;;;;;;27.43;41.61;102014.56;4189687;28;20094;-67
2022/09/10 02:15:11;;;;;;;5.65;3.22;;;;;;;27.43;41.51;102025.81;4198712;28;20036;-67
2022/09/10 02:17:12;;;;;;;2.90;2.60;;;;;;;27.45;41.34;102029.16;4198935;28;20037;-67
2022/09/10 02:19:15;;;;;;;4.40;2.60;;;;;;;27.40;41.83;102017.97;4198547;28;20040;-67
2022/09/10 02:21:19;;;;;;;4.07;2.70;;;;;;;27.37;41.93;102005.34;4198225;28;20037;-68
2022/09/10 02:23:27;;;;;;;5.43;3.15;;;;;;;27.43;41.84;102014.56;4197741;28;20028;-67
2022/09/10 02:25:32;;;;;;;8.68;3.30;;;;;;;27.43;41.86;102003.31;4188891;28;20037;-67
2022/09/10 02:27:37;;;;;;;3.63;2.95;;;;;;;27.44;41.57;102007.78;4182275;28;20369;-68
2022/09/10 02:29:41;;;;;;;4.78;2.97;;;;;;;27.36;41.87;102004.53;4182185;28;20033;-68
2022/09/10 02:31:43;;;;;;;5.05;3.50;;;;;;;27.43;41.55;102009.78;4181569;28;20456;-67
2022/09/10 02:33:44;;;;;;;3.30;3.00;;;;;;;27.42;41.85;102007.28;4181591;28;20103;-68
2022/09/10 02:35:46;;;;;;;6.78;3.17;;;;;;;27.42;41.72;102010.06;4181930;28;20086;-68
2022/09/10 02:37:49;;;;;;;5.18;3.15;;;;;;;27.38;41.75;102011.81;4181797;28;20083;-68
2022/09/10 02:39:50;;;;;;;4.63;2.80;;;;;;;27.39;41.73;102019.94;4181715;28;20041;-68
2022/09/10 02:41:52;;;;;;;4.13;2.70;;;;;;;27.41;42.04;102022.47;4181388;28;20087;-68
2022/09/10 02:43:54;;;;;;;6.72;2.97;;;;;;;27.40;42.07;102026.38;4181451;28;20056;-68
2022/09/10 02:45:57;;;;;;;5.18;3.15;;;;;;;27.40;42.06;102027.25;4181576;28;20098;-68
2022/09/10 02:47:58;;;;;;;4.63;2.70;;;;;;;27.32;42.00;102013.84;4181553;28;20044;-68
2022/09/10 02:50:01;;;;;;;4.22;3.13;;;;;;;27.41;41.79;102031.72;4181593;28;20110;-68
2022/09/10 02:52:02;;;;;;;3.83;2.80;;;;;;;27.41;41.97;102039.34;4180782;28;20094;-68
2022/09/10 02:54:04;;;;;;;4.30;3.08;;;;;;;27.41;42.16;102039.34;4181433;28;20037;-66
2022/09/10 02:56:06;;;;;;;5.72;2.83;;;;;;;27.34;42.15;102029.25;4180868;28;20053;-67
2022/09/10 02:58:07;;;;;;;4.53;2.70;;;;;;;27.40;42.34;102037.63;4181647;28;20424;-68
2022/09/10 03:00:10;;;;;;;3.70;3.10;;;;;;;27.25;42.07;102024.59;4181462;28;20102;-68
2022/09/10 03:02:11;;;;;;;4.05;2.53;;;;;;;27.40;42.19;102048.88;4181260;28;20044;-68
2022/09/10 03:04:16;;;;;;;5.10;3.00;;;;;;;27.15;42.36;102014.31;4181322;28;20080;-67
2022/09/10 03:06:20;;;;;;;3.42;2.70;;;;;;;27.27;42.42;102034.41;4185768;28;20463;-67
2022/09/10 03:08:24;;;;;;;5.53;2.80;;;;;;;27.39;42.26;102052.81;4181311;28;20090;-68
2022/09/10 03:10:30;;;;;;;4.57;2.90;;;;;;;27.39;42.13;102052.81;4181359;28;20480;-67
2022/09/10 03:12:32;;;;;;;4.50;2.63;;;;;;;27.33;42.47;102043.63;4180638;28;20468;-68
2022/09/10 03:14:33;;;;;;;5.70;2.83;;;;;;;27.39;42.36;102053.66;4196001;28;20058;-68
2022/09/10 03:16:38;;;;;;;5.43;2.60;;;;;;;27.39;42.54;102052.81;4197837;28;20048;-68
2022/09/10 03:18:41;;;;;;;5.15;2.92;;;;;;;27.40;42.22;102048.88;4197836;28;20086;-68
2022/09/10 03:20:45;;;;;;;6.07;3.20;;;;;;;27.37;42.20;102044.72;4197406;28;20085;-67
2022/09/10 03:22:46;;;;;;;3.75;2.58;;;;;;;27.40;42.57;102043.25;4198194;28;20525;-67
2022/09/10 03:24:48;;;;;;;4.93;2.75;;;;;;;27.41;42.18;102048.59;4197641;28;20040;-68
2022/09/10 03:26:50;;;;;;;6.50;3.10;;;;;;;27.30;42.25;102033.81;4197441;28;20044;-68
2022/09/10 03:28:51;;;;;;;3.97;2.80;;;;;;;27.41;42.60;102056.19;4197657;28;20048;-68
2022/09/10 03:30:55;;;;;;;3.78;2.63;;;;;;;27.31;42.74;102043.09;4194249;28;20036;-67
2022/09/10 03:32:57;;;;;;;5.88;2.55;;;;;;;27.41;42.76;102056.19;4181254;28;20546;-67
2022/09/10 03:35:01;;;;;;;4.38;2.55;;;;;;;27.40;42.74;102063.78;4181299;28;20090;-68
2022/09/10 03:37:02;;;;;;;5.07;2.88;;;;;;;27.41;42.51;102061.81;4181042;28;20526;-68
2022/09/10 03:39:04;;;;;;;5.15;3.40;;;;;;;27.41;42.72;102061.81;4180621;28;20041;-67
2022/09/10 03:41:05;;;;;;;4.95;2.78;;;;;;;27.41;42.81;102061.81;4181096;28;20044;-67
2022/09/10 03:43:06;;;;;;;3.20;2.72;;;;;;;27.41;42.69;102050.56;4180782;28;20040;-67
2022/09/10 03:45:08;;;;;;;4.75;2.67;;;;;;;27.41;42.54;102056.19;4181042;28;20021;-67
2022/09/10 03:47:10;;;;;;;5.85;2.83;;;;;;;27.40;42.80;102062.94;4180774;28;20370;-67
2022/09/10 03:49:11;;;;;;;4.13;2.90;;;;;;;27.40;42.56;102055.38;4184842;28;20098;-67
2022/09/10 03:51:19;;;;;;;6.57;2.85;;;;;;;27.32;42.91;102065.28;4197025;28;20098;-67
2022/09/10 03:53:21;;;;;;;4.75;3.35;;;;;;;27.43;42.69;102073.59;4195716;28;20036;-67
2022/09/10 03:55:23;;;;;;;4.35;2.90;;;;;;;27.43;42.70;102082.03;4195936;28;20442;-67
2022/09/10 03:57:25;;;;;;;3.45;2.70;;;;;;;27.42;42.63;102091.59;4197456;28;20049;-67
2022/09/10 03:59:26;;;;;;;3.88;3.10;;;;;;;27.41;42.78;102084.31;4197551;28;20037;-67
2022/09/10 04:01:27;;;;;;;3.50;2.92;;;;;;;27.42;42.55;102081.19;4196887;28;20067;-67
2022/09/10 04:03:28;;;;;;;4.05;2.70;;;;;;;27.34;42.60;102077.03;4197310;28;20088;-67
2022/09/10 04:05:37;;;;;;;2.95;2.65;;;;;;;27.34;42.74;102074.22;4197431;28;20041;-67
2022/09/10 04:07:39;;;;;;;4.78;2.70;;;;;;;27.41;42.86;102089.94;4197666;28;20082;-68
2022/09/10 04:09:40;;;;;;;5.05;2.85;;;;;;;27.41;42.91;102101.16;4197113;28;20036;-67
2022/09/10 04:11:44;;;;;;;3.60;2.80;;;;;;;27.41;43.03;102089.94;4194773;28;20114;-67
2022/09/10 04:13:47;;;;;;;7.10;3.13;;;;;;;27.43;43.21;102101.69;4195784;28;20041;-67
2022/09/10 04:15:52;;;;;;;5.53;2.80;;;;;;;27.40;42.96;102093.84;4196998;28;20033;-67
2022/09/10 04:17:54;;;;;;;4.68;2.90;;;;;;;27.41;43.25;102102.00;4196961;28;20044;-67
2022/09/10 04:19:55;;;;;;;4.07;2.55;;;;;;;27.40;42.77;102094.72;4197166;28;20048;-67
2022/09/10 04:21:56;;;;;;;4.00;2.85;;;;;;;27.42;42.92;102102.84;4196916;28;20090;-67
2022/09/10 04:24:01;;;;;;;4.68;2.70;;;;;;;27.43;43.04;102093.25;4197014;28;20561;-67
2022/09/10 04:26:18;;;;;;;3.60;2.50;;;;;;;27.41;42.97;102101.16;4196833;28;20045;-67
2022/09/10 04:28:19;;;;;;;3.88;2.35;;;;;;;27.43;42.75;102098.88;4190429;28;20504;-67
2022/09/10 04:30:22;;;;;;;4.82;3.03;;;;;;;27.43;43.09;102098.88;4190599;28;20090;-67
2022/09/10 04:32:23;;;;;;;4.22;3.08;;;;;;;27.34;43.00;102079.84;4196641;28;20041;-67
2022/09/10 04:34:24;;;;;;;4.95;2.85;;;;;;;27.43;42.83;102088.47;4197323;28;20106;-67
2022/09/10 04:36:26;;;;;;;3.15;2.70;;;;;;;27.43;43.06;102090.44;4197285;28;20434;-67
2022/09/10 04:38:31;;;;;;;3.97;2.65;;;;;;;27.28;43.19;102064.19;4196879;28;20074;-67
2022/09/10 04:40:35;;;;;;;3.25;2.83;;;;;;;27.42;43.21;102088.78;4197581;28;20094;-67
2022/09/10 04:42:57;;;;;;;2.63;2.42;;;;;;;27.29;43.02;102060.25;4196603;28;20090;-67
2022/09/10 04:44:58;;;;;;;3.90;2.67;;;;;;;27.45;43.24;102085.38;4194070;28;20040;-67
2022/09/10 04:47:00;;;;;;;4.55;2.63;;;;;;;27.22;43.03;102054.16;4186657;28;20071;-68
2022/09/10 04:49:03;;;;;;;5.50;2.90;;;;;;;27.43;43.35;102087.63;4199900;28;20143;-67
2022/09/10 04:51:05;;;;;;;4.90;2.60;;;;;;;27.43;43.40;102087.63;4191498;28;20476;-67
2022/09/10 04:53:07;;;;;;;4.25;2.70;;;;;;;27.42;43.17;102098.06;4194573;28;20040;-67
2022/09/10 04:55:10;;;;;;;4.03;2.90;;;;;;;27.42;43.34;102103.69;4199999;28;20369;-67
2022/09/10 04:57:12;;;;;;;6.28;3.10;;;;;;;27.41;43.24;102101.16;4181400;28;20057;-67
2022/09/10 04:59:13;;;;;;;3.53;2.67;;;;;;;27.43;43.09;102104.50;4199794;28;20098;-67
2022/09/10 05:01:14;;;;;;;6.30;3.20;;;;;;;27.43;43.31;102110.13;4199227;28;20128;-67
2022/09/10 05:03:15;;;;;;;3.90;2.60;;;;;;;27.42;43.39;102102.84;4199764;28;20086;-67
2022/09/10 05:05:17;;;;;;;5.38;2.70;;;;;;;27.40;43.42;102105.09;4199484;28;20071;-67
2022/09/10 05:07:18;;;;;;;4.15;2.60;;;;;;;27.43;43.53;102108.16;4197733;28;20450;-67
2022/09/10 05:09:20;;;;;;;3.00;2.70;;;;;;;27.42;43.77;102108.47;4188086;28;20479;-67
2022/09/10 05:11:22;;;;;;;5.22;2.85;;;;;;;27.40;43.63;102114.38;4199448;28;20040;-67
2022/09/10 05:13:23;;;;;;;5.05;2.83;;;;;;;27.39;43.61;102115.50;4195239;28;20033;-67
2022/09/10 05:15:27;;;;;;;4.00;3.20;;;;;;;27.39;43.65;102109.03;4183427;28;20037;-67
2022/09/10 05:17:29;;;;;;;3.38;2.38;;;;;;;27.41;43.41;102112.41;4183086;28;20496;-67
2022/09/10 05:19:30;;;;;;;4.53;2.90;;;;;;;27.42;43.55;102108.47;4183041;28;20037;-67
2022/09/10 05:21:34;;;;;;;4.28;2.75;;;;;;;27.40;43.55;102100.34;4182555;28;20102;-67
2022/09/10 05:23:35;;;;;;;3.78;2.58;;;;;;;27.25;43.80;102090.06;4182490;28;20045;-67
2022/09/10 05:25:36;;;;;;;2.97;2.28;;;;;;;27.40;43.55;102105.97;4187186;28;20036;-67
2022/09/10 05:27:40;;;;;;;4.95;2.83;;;;;;;27.40;43.36;102110.72;4199272;28;20102;-67
2022/09/10 05:29:44;;;;;;;4.97;2.37;;;;;;;27.40;43.46;102110.72;4199370;28;20108;-66
2022/09/10 05:31:45;;;;;;;5.10;3.22;;;;;;;27.40;43.58;102110.72;4198772;28;20048;-69
2022/09/10 05:33:49;;;;;;;4.93;2.70;;;;;;;27.40;43.54;102100.34;4199282;28;20040;-68
2022/09/10 05:35:51;;;;;;;3.25;2.92;;;;;;;27.33;43.77;102086.63;4199425;28;20094;-68
2022/09/10 05:37:52;;;;;;;4.00;2.83;;;;;;;27.40;43.56;102100.34;4199327;28;20044;-68
2022/09/10 05:39:54;;;;;;;3.40;2.40;;;;;;;27.40;43.48;102093.84;4199198;28;20094;-68
2022/09/10 05:41:56;;;;;;;5.20;3.15;;;;;;;27.41;43.53;102098.34;4198563;28;20473;-68
2022/09/10 05:43:58;;;;;;;3.33;2.50;;;;;;;27.41;43.64;102095.56;4199291;28;20032;-68
2022/09/10 05:45:59;;;;;;;4.47;2.80;;;;;;;27.39;43.77;102092.19;4199058;28;20048;-68
2022/09/10 05:48:01;;;;;;;3.75;2.40;;;;;;;27.41;43.69;102087.94;4199012;28;20092;-68
2022/09/10 05:50:04;;;;;;;5.32;2.60;;;;;;;27.41;43.69;102104.81;4199110;28;20101;-68
2022/09/10 05:52:05;;;;;;;4.38;2.63;;;;;;;27.42;43.79;102108.47;4198516;28;20098;-68
2022/09/10 05:54:10;;;;;;;4.60;2.45;;;;;;;27.41;43.60;102106.78;4199109;28;20092;-68
2022/09/10 05:56:11;;;;;;;7.57;2.80;;;;;;;27.42;43.34;102108.47;4198551;28;20476;-68
2022/09/10 05:58:15;;;;;;;4.00;2.58;;;;;;;27.40;43.55;102105.09;4197608;28;20052;-68
2022/09/10 06:00:17;;;;;;;3.85;2.67;;;;;;;27.42;43.54;102108.47;4199243;28;20048;-68
2022/09/10 06:02:18;;;;;;;4.53;2.53;;;;;;;27.41;43.78;102112.41;4192827;28;20037;-68
2022/09/10 06:04:20;;;;;;;3.65;2.45;;;;;;;27.41;43.74;102115.22;4182657;28;20489;-68
2022/09/10 06:06:21;;;;;;;3.92;2.72;;;;;;;27.41;43.59;102115.22;4182602;28;20099;-67
2022/09/10 06:08:22;;;;;;;4.22;2.80;;;;;;;27.36;43.65;102104.88;4182678;28;20063;-67
2022/09/10 06:10:24;;;;;;;5.75;2.90;;;;;;;27.25;43.75;102084.44;4182433;28;20040;-66
2022/09/10 06:12:31;;;;;;;5.15;2.60;;;;;;;27.41;44.03;102112.41;4181849;28;20462;-66
2022/09/10 06:14:33;;;;;;;3.90;2.78;;;;;;;27.41;43.89;102116.06;4190443;28;20045;-67
2022/09/10 06:16:37;;;;;;;3.85;3.15;;;;;;;27.34;43.95;102102.34;4198632;28;20044;-67
2022/09/10 06:18:38;;;;;;;4.80;2.83;;;;;;;27.42;43.88;102114.91;4198573;28;20036;-67
2022/09/10 06:20:40;;;;;;;8.48;2.75;;;;;;;27.42;43.68;102114.91;4194835;28;20350;-67
2022/09/10 06:22:41;;;;;;;4.00;2.40;;;;;;;27.40;43.80;102117.19;4198340;28;20049;-66
2022/09/10 06:24:42;;;;;;;4.22;2.83;;;;;;;27.40;43.69;102117.19;4198471;28;20097;-66
2022/09/10 06:26:46;;;;;;;4.68;3.03;;;;;;;27.41;43.80;102129.28;4198141;28;20105;-66
2022/09/10 06:28:50;;;;;;;6.73;2.60;;;;;;;27.22;43.92;102090.69;4198849;28;20557;-67
2022/09/10 06:30:51;;;;;;;4.20;2.53;;;;;;;27.41;44.05;102123.66;4197943;28;20270;-67
2022/09/10 06:32:56;;;;;;;5.50;2.75;;;;;;;27.40;43.78;102128.44;4195030;28;20269;-67
2022/09/10 06:35:00;;;;;;;3.88;2.80;;;;;;;27.41;43.83;102132.09;4198406;28;20101;-67
2022/09/10 06:37:04;;;;;;;4.57;2.47;;;;;;;27.42;44.15;102128.97;4198168;28;20036;-67
2022/09/10 06:39:06;;;;;;;;;;;;;;;27.41;43.96;102134.91;4210235;28;20341;-67
2022/09/10 06:41:12;;;;;;;6.38;2.60;;;;;;;27.47;43.65;102131.72;4214769;28;19912;-67
2022/09/10 06:43:13;;;;;;;4.47;2.75;;;;;;;27.47;43.63;102137.34;4206439;28;20480;-66
2022/09/10 06:45:14;;;;;;;3.17;2.40;;;;;;;27.46;43.66;102132.03;4198233;28;20040;-67
2022/09/10 06:47:18;;;;;;;3.80;2.97;;;;;;;27.43;43.95;102132.63;4213960;28;20032;-67
2022/09/10 06:49:23;;;;;;;5.77;2.93;;;;;;;27.44;44.11;102135.13;4194499;28;20036;-67
2022/09/10 06:51:24;;;;;;;8.43;2.80;;;;;;;27.40;43.97;102133.19;4188096;28;20315;-68
2022/09/10 06:53:32;;;;;;;3.83;2.78;;;;;;;27.47;43.85;102139.31;4197782;28;20041;-68
2022/09/10 06:55:34;;;;;;;3.97;2.97;;;;;;;27.49;43.76;102148.28;4189901;28;20045;-68
2022/09/10 06:57:35;;;;;;;5.28;2.65;;;;;;;27.50;43.58;102144.38;4195850;28;20102;-68
2022/09/10 06:59:46;;;;;;;3.78;2.72;;;;;;;27.51;43.57;102146.03;4203121;28;20052;-68
2022/09/10 07:01:48;;;;;;;4.43;2.88;;;;;;;27.52;43.91;102144.88;4196911;28;20045;-68
2022/09/10 07:03:57;;;;;;;5.32;3.75;;;;;;;27.52;43.64;102147.69;4197871;28;20373;-68
2022/09/10 07:06:08;;;;;;;5.32;4.25;;;;;;;27.51;43.93;102146.03;4197900;28;20361;-68
2022/09/10 07:08:11;;;;;;;5.70;4.30;;;;;;;27.53;43.70;102147.41;4186422;28;20024;-68
2022/09/10 07:10:12;;;;;;;7.38;5.07;;;;;;;27.55;43.92;102147.13;4180980;28;20114;-68
2022/09/10 07:12:13;;;;;;;7.50;5.53;;;;;;;27.55;44.04;102144.31;4180934;28;20102;-68
2022/09/10 07:14:15;;;;;;;7.70;4.90;;;;;;;27.54;44.09;102140.66;4184302;28;20045;-68
2022/09/10 07:16:20;;;;;;;5.47;4.22;;;;;;;27.53;44.04;102136.16;4197793;28;20033;-68
2022/09/10 07:18:25;;;;;;;6.05;4.32;;;;;;;27.55;44.23;102135.88;4197508;28;20090;-66
2022/09/10 07:20:28;;;;;;;6.80;3.88;;;;;;;27.47;44.17;102122.47;4197710;28;20117;-68
2022/09/10 07:22:32;;;;;;;5.55;3.80;;;;;;;27.55;44.11;102141.50;4197323;28;20066;-68
2022/09/10 07:24:33;;;;;;;7.27;3.57;;;;;;;27.55;44.04;102142.31;4197747;28;20032;-68
2022/09/10 07:26:34;;;;;;;6.03;3.20;;;;;;;27.57;44.06;102144.84;4197708;28;20265;-68
2022/09/10 07:28:38;;;;;;;8.02;3.95;;;;;;;27.57;44.20;102139.22;4203649;28;20094;-68
2022/09/10 07:30:40;;;;;;;4.00;3.58;;;;;;;27.57;43.87;102139.22;4197633;28;20105;-67
2022/09/10 07:32:42;;;;;;;7.00;3.60;;;;;;;27.54;43.87;102123.78;4196729;28;21133;-67
2022/09/10 07:34:46;;;;;;;6.53;3.55;;;;;;;27.57;43.91;102140.03;4197195;28;20036;-68
2022/09/10 07:36:47;;;;;;;5.03;3.30;;;;;;;27.57;44.10;102140.03;4197683;28;20098;-67
2022/09/10 07:38:51;;;;;;;7.13;3.55;;;;;;;27.58;44.17;102135.25;4197723;28;20086;-68
2022/09/10 07:40:52;;;;;;;5.93;3.35;;;;;;;27.58;44.28;102140.88;4197408;28;20105;-68
2022/09/10 07:42:54;;;;;;;4.80;3.30;;;;;;;27.58;44.17;102146.50;4197198;28;20036;-68
2022/09/10 07:44:56;;;;;;;4.07;3.13;;;;;;;27.58;44.13;102143.69;4197335;28;20089;-68
2022/09/10 07:46:58;;;;;;;5.38;3.40;;;;;;;27.58;44.37;102149.31;4197970;28;20040;-68
2022/09/10 07:49:00;;;;;;;5.13;3.00;;;;;;;27.58;44.02;102149.31;4197240;28;20040;-68
2022/09/10 07:51:06;;;;;;;5.20;2.78;;;;;;;27.57;44.15;102151.28;4194934;28;20041;-67
2022/09/10 07:53:08;;;;;;;4.35;3.22;;;;;;;27.57;44.29;102150.47;4197531;28;20048;-68
2022/09/10 07:55:09;;;;;;;5.72;3.42;;;;;;;27.58;44.37;102143.69;4197141;28;20040;-69
2022/09/10 07:57:13;;;;;;;4.40;3.25;;;;;;;27.58;43.96;102140.88;4195751;28;20040;-68
2022/09/10 07:59:15;;;;;;;7.07;4.00;;;;;;;27.55;44.38;102141.50;4198732;28;20090;-68
2022/09/10 08:01:18;;;;;;;7.35;3.50;;;;;;;27.59;44.12;102142.56;4196034;28;20044;-68
2022/09/10 08:03:22;;;;;;;5.07;3.38;;;;;;;27.59;44.37;102142.56;4206861;28;20093;-68
2022/09/10 08:05:27;;;;;;;4.88;3.53;;;;;;;27.51;44.10;102131.97;4214470;28;20040;-68
2022/09/10 08:07:30;;;;;;;5.57;3.08;;;;;;;27.57;44.20;102140.03;4213302;28;20077;-68
2022/09/10 08:09:47;;;;;;;4.18;2.92;;;;;;;27.60;44.14;102149.88;4184355;28;20075;-68
2022/09/10 08:11:48;;;;;;;4.55;2.97;;;;;;;27.61;44.21;102145.91;4180515;28;20075;-68
2022/09/10 08:13:51;;;;;;;4.15;3.00;;;;;;;27.61;44.14;102151.53;4180401;28;20075;-68
2022/09/10 08:15:56;;;;;;;4.60;3.17;;;;;;;27.61;44.32;102148.72;4180220;28;20094;-68
2022/09/10 08:17:59;;;;;;;6.43;3.08;;;;;;;27.60;44.29;102155.50;4180373;28;20083;-68
2022/09/10 08:20:04;;;;;;;7.30;3.40;;;;;;;27.53;44.37;102141.78;4180436;28;20091;-68
2022/09/10 08:22:05;;;;;;;6.75;3.10;;;;;;;27.60;44.20;102152.69;4181571;28;20111;-68
2022/09/10 08:24:07;;;;;;;4.82;3.17;;;;;;;27.60;44.51;102149.88;4183621;28;20574;-67
2022/09/10 08:26:09;;;;;;;6.47;3.05;;;;;;;27.57;44.43;102147.66;4198103;28;20044;-67
2022/09/10 08:28:10;;;;;;;6.00;3.05;;;;;;;27.60;44.44;102161.13;4200328;28;20082;-68
2022/09/10 08:30:15;;;;;;;5.95;3.05;;;;;;;27.59;44.21;102162.25;4200104;28;20109;-68
2022/09/10 08:32:19;;;;;;;5.22;2.80;;;;;;;27.57;44.27;102156.06;4199558;28;20044;-68
2022/09/10 08:34:21;;;;;;;5.60;3.13;;;;;;;27.59;44.39;102156.63;4199850;28;20098;-68
2022/09/10 08:36:25;;;;;;;5.60;3.25;;;;;;;27.51;44.40;102140.41;4199839;28;20266;-68
2022/09/10 08:38:35;;;;;;;5.85;3.13;;;;;;;27.59;44.28;102153.81;4199541;28;20048;-68
2022/09/10 08:40:44;;;;;;;4.45;3.38;;;;;;;27.48;44.36;102133.41;4199992;28;20114;-68
2022/09/10 08:42:48;;;;;;;7.47;3.22;;;;;;;27.60;44.14;102155.50;4199993;28;20434;-68
2022/09/10 08:44:56;;;;;;;5.80;3.22;;;;;;;27.57;44.37;102144.84;4199897;28;20094;-68
2022/09/10 08:47:00;;;;;;;3.72;3.00;;;;;;;27.60;44.41;102149.88;4199061;28;20431;-68
2022/09/10 08:49:25;;;;;;;3.30;2.83;;;;;;;27.60;44.34;102155.50;4200334;28;20114;-68
2022/09/10 08:51:33;;;;;;;5.53;3.70;;;;;;;27.61;44.39;102151.53;4208193;28;20483;-68
2022/09/10 08:54:09;;;;;;;4.28;3.05;;;;;;;27.61;44.36;102151.53;4216655;28;20040;-68
2022/09/10 08:56:14;;;;;;;;;;;;;;;27.58;44.21;102146.50;4157246;28;20104;-68
2022/09/10 08:59:09;;;;;;;7.07;3.47;;;;;;;27.60;44.43;102149.88;4175465;28;19916;-68
2022/09/10 09:01:33;;;;;;;6.13;3.72;;;;;;;27.64;44.17;102162.19;4158261;28;20180;-68
2022/09/10 09:03:45;;;;;;;9.93;3.80;;;;;;;27.62;44.22;102158.84;4187551;28;20077;-68
2022/09/10 09:05:59;;;;;;;4.18;3.00;;;;;;;27.61;44.18;102157.16;4199807;28;20040;-68
2022/09/10 09:08:05;;;;;;;4.72;3.20;;;;;;;27.61;44.26;102149.56;4199786;28;20475;-68
2022/09/10 09:10:40;;;;;;;3.58;3.13;;;;;;;27.57;44.46;102150.47;4200089;28;20040;-68
2022/09/10 09:12:52;;;;;;;5.68;2.92;;;;;;;27.60;44.25;102155.50;4199644;28;20094;-67
2022/09/10 09:15:16;;;;;;;4.57;3.30;;;;;;;27.58;44.20;102163.38;4199769;28;20423;-68
2022/09/10 09:17:29;;;;;;;3.30;2.80;;;;;;;27.59;44.40;102170.69;4198374;28;20512;-68
2022/09/10 09:19:58;;;;;;;4.53;2.92;;;;;;;27.55;44.36;102161.19;4199845;28;20044;-68
2022/09/10 09:22:40;;;;;;;5.22;3.10;;;;;;;27.47;44.21;102144.94;4199177;28;20048;-68
2022/09/10 09:24:57;;;;;;;3.78;3.05;;;;;;;27.59;44.20;102165.91;4148053;28;20042;-67
2022/09/10 09:27:08;;;;;;;4.47;3.05;;;;;;;27.58;44.07;102169.00;4181484;28;20442;-68
2022/09/10 09:29:24;;;;;;;5.20;3.13;;;;;;;27.57;44.46;102162.53;4199782;28;20044;-68
2022/09/10 09:31:29;;;;;;;5.00;2.88;;;;;;;27.38;44.34;102132.66;4199374;28;20357;-69
2022/09/10 09:33:32;;;;;;;4.82;2.72;;;;;;;27.58;44.31;102169.00;4197115;28;20040;-68
2022/09/10 09:35:51;;;;;;;4.55;2.85;;;;;;;27.55;44.60;102166.81;4207741;28;20032;-69
2022/09/10 09:38:17;;;;;;;5.05;2.83;;;;;;;27.56;44.43;102172.13;4201982;28;20121;-68
2022/09/10 09:40:36;;;;;;;3.95;3.00;;;;;;;27.57;44.52;102170.13;4198351;28;20048;-68
2022/09/10 09:42:50;;;;;;;4.25;2.85;;;;;;;27.41;44.46;102146.16;4182373;28;20045;-68